• Join FlightAware (Why Join?)
  • Login
  • US Flag 
09:49AM EST


 

Airport Tracker/Info


-or-


 

Live Flight TrackerFlight Track Log ✈ GJS3618 ✈ 30-Apr-2013 ✈ KORD - KALB

Flight Track Log - Related Links

Times and Time Zones

All times are in EDT time to prevent confusion due to time zone crossing. See the GJS3618 flight status page for this flight to view local times or setup timezone preferences in your user account.

Time Position Orientation Groundspeed Altitude Reporting Facility
EDT Latitude Longitude Course Direction KTS MPH feet Rate Location/Type
09:17AM 41.9333 -87.8833 90° East 180 207 2,400  Level Chicago TRACON
09:18AM 41.9333 -87.8000 90° East 274 315 4,700 1,020 Climbing Chicago TRACON
09:19AM 41.9568 -87.4446 95° East  Level FlightAware Approximate
09:20AM 41.9457 -87.2934 96° East  Level FlightAware Approximate
09:20AM 41.9714 -87.5675 78° East 294 338 6,000  Level Chicago Center
09:21AM 41.9340 -87.1423 96° East  Level FlightAware Approximate
09:21AM 42.0292 -87.4789 49° Northeast 315 362 8,900  Level Chicago Center
09:22AM 41.9333 -86.9904 90° East  Level FlightAware Approximate
09:22AM 42.0322 -87.3589 88° East 332 382 11,900  Level Chicago Center
09:23AM 42.0247 -87.2081 94° East 339 390 15,000 1,980 Climbing Chicago Center
09:24AM 42.0186 -87.0789 94° East 346 398 16,100 1,620 Climbing Chicago Center
09:25AM 42.0086 -86.9403 95° East 371 427 18,400 2,040 Climbing Chicago Center
09:26AM 42.0006 -86.7939 94° East 392 451 20,400 1,920 Climbing Chicago Center
09:27AM 41.9894 -86.6453 96° East 405 466 22,400 1,200 Climbing Chicago Center
09:28AM 41.9758 -86.4903 97° East 414 476 23,000 240 Climbing Chicago Center
09:29AM 41.9633 -86.3028 95° East 420 483 23,000  Level Chicago Center
09:30AM 41.9453 -86.1483 99° East 421 484 23,000 180 Level Chicago Center
09:31AM 41.8997 -86.0056 113° Southeast 424 488 23,400 1,020 Climbing Chicago Center
09:32AM 41.8367 -85.8692 122° Southeast 433 498 25,200 1,740 Climbing Chicago Center
09:33AM 41.7747 -85.7342 122° Southeast 429 494 27,000 1,680 Climbing Chicago Center
09:34AM 41.7167 -85.6011 120° Southeast 422 486 28,700 1,380 Climbing Chicago Center
09:35AM 41.7194 -85.4272 89° East 416 479 29,900 1,020 Climbing Chicago Center
09:37AM 41.7336 -85.2775 83° East 427 491 30,900 480 Climbing Chicago Center
09:38AM 41.7492 -85.1158 83° East 434 499 31,000  Climbing Chicago Center
09:39AM 41.7692 -84.9186 82° East 444 511 31,000 300 Level Chicago Center
09:40AM 41.7847 -84.7547 83° East 444 511 31,700 720 Climbing Chicago Center
09:40AM 41.7939 -84.6556 83° East 445 512 32,300 780 Climbing Cleveland Center
09:41AM 41.8119 -84.4894 82° East 433 498 33,000 300 Climbing Cleveland Center
09:42AM 41.8258 -84.3258 83° East 439 505 33,000  Level Cleveland Center
09:43AM 41.8400 -84.1481 84° East 439 505 33,000  Level Cleveland Center
09:44AM 41.8531 -83.9872 84° East 439 505 33,000  Level Cleveland Center
09:46AM 41.8772 -83.7439 82° East 433 498 33,000  Level Chicago Center
09:46AM 41.8831 -83.6650 84° East 439 505 33,000 300 Level Cleveland Center
09:47AM 41.8978 -83.4983 83° East 439 505 33,500 720 Climbing Cleveland Center
09:48AM 41.9125 -83.3317 83° East 446 513 34,500 960 Climbing Cleveland Center
09:49AM 41.9247 -83.1619 84° East 446 513 35,500 960 Climbing Cleveland Center
09:50AM 41.9367 -82.9922 85° East 446 513 36,500 720 Climbing Cleveland Center
09:51AM 41.9525 -82.8281 83° East 446 513 37,000 240 Climbing Cleveland Center
09:52AM 41.9722 -82.6722 80° East 454 522 37,000  Level Cleveland Center
09:53AM 41.9939 -82.5025 80° East 459 528 37,000  Level Cleveland Center
09:54AM 42.0133 -82.3325 81° East 464 534 37,100  Climbing Cleveland Center
09:55AM 42.0408 -82.1656 77° East 464 534 37,000 -60 Descending Cleveland Center
09:56AM 42.1011 -82.0047 63° Northeast 445 512 37,000  Level Cleveland Center
09:57AM 42.1592 -81.8606 61° Northeast 437 503 37,000  Level Cleveland Center
09:58AM 42.2128 -81.7158 63° Northeast 432 497 37,000  Level Cleveland Center
09:59AM 42.2664 -81.5708 63° Northeast 432 497 37,000  Level Cleveland Center
10:00AM 42.3236 -81.4256 62° Northeast 425 489 37,000  Level Cleveland Center
10:01AM 42.3539 -81.2603 76° East 425 489 37,000  Level Cleveland Center
10:02AM 42.3672 -81.0975 84° East 434 499 37,000  Level Cleveland Center
10:03AM 42.3806 -80.9458 83° East 450 518 37,000  Level Cleveland Center
10:04AM 42.3956 -80.7744 83° East 453 521 37,000  Level Cleveland Center
10:05AM 42.4103 -80.6028 83° East 453 521 37,000  Level Cleveland Center
10:06AM 42.4225 -80.4342 84° East 458 527 37,000  Level Cleveland Center
10:07AM 42.4369 -80.2653 83° East 459 528 37,000  Level Cleveland Center
10:08AM 42.4467 -80.0881 86° East 464 534 37,000  Level Cleveland Center
10:09AM 42.4644 -79.9019 83° East 464 534 37,000  Level Cleveland Center
10:10AM 42.4778 -79.7303 84° East 464 534 37,000  Level Cleveland Center
10:11AM 42.4889 -79.5583 85° East 464 534 37,000  Level Cleveland Center
10:12AM 42.5019 -79.3833 84° East 464 534 37,000  Level Cleveland Center
10:13AM 42.5125 -79.2114 85° East 464 534 37,000  Level Cleveland Center
10:14AM 42.5250 -79.0364 84° East 464 534 37,000  Level Cleveland Center
10:15AM 42.5372 -78.8672 84° East 459 528 37,000 -360 Level Cleveland Center
10:16AM 42.5447 -78.6950 87° East 459 528 36,300 -900 Descending Cleveland Center
10:17AM 42.5564 -78.5256 85° East 459 528 35,300 -1,020 Descending Cleveland Center
10:18AM 42.5678 -78.3531 85° East 459 528 34,300 -1,020 Descending Cleveland Center
10:19AM 42.5769 -78.1808 86° East 459 528 33,300 -1,020 Descending Cleveland Center
10:20AM 42.5878 -78.0111 85° East 459 528 32,300 -1,020 Descending Cleveland Center
10:21AM 42.5964 -77.8417 86° East 454 522 31,300 -660 Descending Cleveland Center
10:22AM 42.6053 -77.6917 85° East 454 522 31,000 -180 Descending Cleveland Center
10:23AM 42.6133 -77.5219 86° East 448 516 31,000 -600 Level Cleveland Center
10:26AM 42.6333 -77.1228 86° East 470 541 29,200 -660 Descending Boston Center
10:27AM 42.6422 -76.9486 86° East 464 534 29,000 -120 Descending Boston Center
10:28AM 42.6511 -76.7739 86° East 458 527 29,000  Level Boston Center
10:29AM 42.6578 -76.6022 87° East 458 527 29,000  Level Boston Center
10:30AM 42.6658 -76.4303 86° East 458 527 29,000 -180 Level Boston Center
10:31AM 42.6739 -76.2614 86° East 458 527 28,700 -1,020 Descending Boston Center
10:32AM 42.6814 -76.0922 86° East 458 527 27,000 -1,620 Descending Boston Center
10:33AM 42.6844 -75.9314 88° East 448 516 25,500 -1,860 Descending Boston Center
10:34AM 42.6919 -75.7511 87° East 433 498 23,300 -2,040 Descending Boston Center
10:35AM 42.6964 -75.5931 88° East 422 486 21,500 -1,800 Descending Boston Center
10:36AM 42.7025 -75.4436 87° East 416 479 19,700 -1,800 Descending Boston Center
10:37AM 42.7086 -75.2942 87° East 403 464 17,900 -1,680 Descending Boston Center
10:38AM 42.7119 -75.1500 88° East 393 452 16,400 -1,680 Descending Boston Center
10:39AM 42.7172 -75.0089 87° East 380 437 14,600 -1,860 Descending Boston Center
10:40AM 42.7222 -74.8792 87° East 363 418 12,800 -1,740 Descending Boston Center
10:41AM 42.7225 -74.7633 90° East 333 383 11,200 -1,320 Descending Boston Center
10:41AM 42.7253 -74.7294 84° East 291 335 11,100 -240 Descending Boston Center
10:42AM 42.7267 -74.6617 88° East 294 338 11,000  Descending Boston Center
10:42AM 42.7275 -74.6222 88° East 283 326 11,100  Climbing Boston Center
10:43AM 42.7289 -74.5458 89° East 284 327 11,000 -600 Descending Boston Center
10:44AM 42.7333 -74.4189 87° East 284 327 10,000 -1,200 Descending Boston Center
10:45AM 42.7369 -74.3200 87° East 273 314 8,600 -1,500 Descending Boston Center
10:46AM 42.7386 -74.2267 89° East 249 287 7,000 -1,560 Descending Boston Center
10:46AM 42.7411 -74.2014 82° East 247 284 6,700 -1,380 Descending Boston Center
10:47AM 42.7403 -74.1250 91° East 244 281 5,400 -1,500 Descending Boston Center
10:47AM 42.7406 -74.0967 89° East 239 275 4,900 -1,320 Descending Boston Center
10:48AM 42.7519 -74.0319 77° East 232 267 4,100 -840 Descending Boston Center
10:48AM 42.7708 -74.0211 23° Northeast 228 262 4,100 -120 Level Boston Center
10:49AM 42.8067 -73.9939 29° Northeast 199 229 4,000 -600 Descending Boston Center
10:50AM 42.8550 -73.9639 24° Northeast 205 236 3,100 -540 Descending Boston Center
10:51AM 42.8664 -73.8875 78° East 177 204 3,000 -300 Descending Boston Center
10:52AM 42.8608 -73.8194 96° East 177 204 2,600 -480 Descending Boston Center
10:52AM 42.8444 -73.8136 165° South 158 182 2,400 -300 Descending Boston Center
10:53AM 42.8447 -73.7739 89° East 154 177 2,300 -1,020 Descending Boston Center
10:53AM 42.7986 -73.8097 210° Southwest 139 160 1,300 -1,320 Descending Boston Center
10:54AM 42.7653 -73.8061 175° South 121 139 600 -780 Descending Boston Center
10:57AM 42.7491 -73.8020 174° South  Level Estimated
11:04AM 42.7491 -73.8020 174° South  Level Estimated
11:05AM 42.7491 -73.8020 174° South  Level Estimated